Time;durP1;ratioP1;P1;durP2;ratioP2;P2;SDS_P1;SDS_P2;PMS_P1;PMS_P2;Temp;Humidity;BMP_temperature;BMP_pressure;BME280_temperature;BME280_humidity;BME280_pressure;Samples;Min_cycle;Max_cycle;Signal;HPM_P1;HPM_P2
2022/01/29 00:01:20;;;;;;;;;;;;;;;21.79;41.07;102724.41;7286137;19;153790;-50
2022/01/29 00:03:52;;;;;;;;;;;;;;;21.81;40.66;102719.31;7281274;19;153478;-50
2022/01/29 00:06:39;;;;;;;;;;;;;;;21.83;40.58;102721.88;7278835;19;151657;-50
2022/01/29 00:09:08;;;;;;;;;;;;;;;21.83;40.54;102703.03;7279547;19;152153;-51
2022/01/29 00:11:36;;;;;;;;;;;;;;;21.83;40.94;102708.66;7287628;19;152626;-50
2022/01/29 00:14:06;;;;;;;;;;;;;;;21.84;40.57;102706.69;7281458;19;152232;-51
2022/01/29 00:16:43;;;;;;;;;;;;;;;21.84;40.66;102710.34;7281946;19;152584;-50
2022/01/29 00:19:13;;;;;;;;;;;;;;;21.84;40.79;102704.72;7283149;19;151971;-50
2022/01/29 00:21:44;;;;;;;;;;;;;;;21.84;41.22;102710.34;7284475;19;152263;-50
2022/01/29 00:24:20;;;;;;;;;;;;;;;21.84;41.11;102717.94;7281792;19;154585;-50
2022/01/29 00:26:53;;;;;;;;;;;;;;;21.84;41.29;102703.88;7282298;19;151677;-50
2022/01/29 00:29:22;;;;;;;;;;;;;;;21.82;41.16;102698.50;7282348;19;153200;-50
2022/01/29 00:31:54;;;;;;;;;;;;;;;21.83;40.94;102700.22;7284013;19;153485;-50
2022/01/29 00:34:26;;;;;;;;;;;;;;;21.81;41.17;102690.34;7296666;19;152286;-50
2022/01/29 00:36:54;;;;;;;;;;;;;;;21.80;41.10;102691.47;7289399;19;153592;-51
2022/01/29 00:39:22;;;;;;;;;;;;;;;21.78;40.63;102683.31;7289857;19;152352;-50
2022/01/29 00:41:50;;;;;;;;;;;;;;;21.77;40.99;102681.59;7289143;19;154842;-50
2022/01/29 00:44:38;;;;;;;;;;;;;;;21.76;40.83;102679.91;7289693;19;152511;-50
2022/01/29 00:47:06;;;;;;;;;;;;;;;21.73;40.76;102672.88;7289159;19;152142;-50
2022/01/29 00:49:34;;;;;;;;;;;;;;;21.72;40.86;102673.97;7289325;19;152787;-51
2022/01/29 00:52:12;;;;;;;;;;;;;;;21.69;41.12;102663.28;7288969;19;153383;-50
2022/01/29 00:54:40;;;;;;;;;;;;;;;21.68;41.21;102670.03;7290762;19;151929;-50
2022/01/29 00:57:08;;;;;;;;;;;;;;;21.67;41.41;102673.97;7296214;19;152823;-51
2022/01/29 00:59:36;;;;;;;;;;;;;;;21.65;41.26;102656.53;7288881;19;151980;-50
2022/01/29 01:02:04;;;;;;;;;;;;;;;21.64;41.67;102656.78;7287494;19;153901;-50
2022/01/29 01:04:32;;;;;;;;;;;;;;;21.61;41.46;102655.38;7286490;19;152153;-50
2022/01/29 01:07:00;;;;;;;;;;;;;;;21.60;41.55;102653.69;7289519;19;151451;-50
2022/01/29 01:09:27;;;;;;;;;;;;;;;21.58;41.48;102661.53;7288303;19;152893;-50
2022/01/29 01:11:54;;;;;;;;;;;;;;;21.56;41.96;102646.06;7286934;19;153921;-51
2022/01/29 01:14:20;;;;;;;;;;;;;;;21.53;42.03;102653.06;7290035;19;152059;-50
2022/01/29 01:16:48;;;;;;;;;;;;;;;21.52;42.04;102654.22;7294594;19;153420;-50
2022/01/29 01:19:14;;;;;;;;;;;;;;;21.50;42.52;102659.25;7286558;19;151867;-50
2022/01/29 01:21:42;;;;;;;;;;;;;;;21.48;42.33;102655.88;7289329;19;152680;-51
2022/01/29 01:24:09;;;;;;;;;;;;;;;21.45;42.45;102650.78;7285169;19;153697;-50
2022/01/29 01:26:41;;;;;;;;;;;;;;;21.43;42.75;102640.94;7290478;19;152314;-50
2022/01/29 01:29:09;;;;;;;;;;;;;;;21.41;42.91;102643.16;7287303;19;153384;-50
2022/01/29 01:31:36;;;;;;;;;;;;;;;21.40;43.14;102644.28;7287244;19;153847;-50
2022/01/29 01:34:05;;;;;;;;;;;;;;;21.36;43.65;102646.81;7286053;19;151715;-49
2022/01/29 01:36:39;;;;;;;;;;;;;;;21.35;43.65;102642.28;7287332;19;153347;-50
2022/01/29 01:39:09;;;;;;;;;;;;;;;21.34;43.94;102648.22;7294648;19;153935;-50
2022/01/29 01:41:41;;;;;;;;;;;;;;;21.31;43.94;102643.97;7288112;19;153382;-50
2022/01/29 01:44:10;;;;;;;;;;;;;;;21.29;44.03;102640.59;7284732;19;154296;-50
2022/01/29 01:46:43;;;;;;;;;;;;;;;21.27;44.17;102640.00;7287374;19;152634;-50
2022/01/29 01:49:11;;;;;;;;;;;;;;;21.24;44.19;102637.75;7287546;19;152711;-50
2022/01/29 01:51:38;;;;;;;;;;;;;;;21.22;44.38;102639.97;7287174;19;152731;-51
2022/01/29 01:54:05;;;;;;;;;;;;;;;21.20;43.86;102636.59;7284247;19;152118;-50
2022/01/29 01:56:32;;;;;;;;;;;;;;;21.16;44.18;102625.06;7288850;19;153583;-50
2022/01/29 01:58:59;;;;;;;;;;;;;;;21.14;44.28;102627.28;7288226;19;153737;-50
2022/01/29 02:01:31;;;;;;;;;;;;;;;21.11;44.27;102619.38;7296628;19;151866;-50
2022/01/29 02:03:59;;;;;;;;;;;;;;;21.08;44.14;102614.28;7286133;19;153289;-50
2022/01/29 02:06:27;;;;;;;;;;;;;;;21.07;44.21;102617.38;7289166;19;151877;-50
2022/01/29 02:09:01;;;;;;;;;;;;;;;21.02;44.29;102617.34;7283857;19;153462;-50
2022/01/29 02:11:29;;;;;;;;;;;;;;;21.01;44.67;102615.63;7284848;19;155729;-50
2022/01/29 02:13:58;;;;;;;;;;;;;;;20.99;44.68;102609.44;7284773;19;152553;-50
2022/01/29 02:16:28;;;;;;;;;;;;;;;20.97;44.49;102608.88;7286381;19;153386;-50
2022/01/29 02:18:55;;;;;;;;;;;;;;;20.93;44.19;102602.94;7284642;19;152677;-50
2022/01/29 02:21:27;;;;;;;;;;;;;;;20.93;44.79;102605.75;7286789;19;151511;-51
2022/01/29 02:23:55;;;;;;;;;;;;;;;20.92;44.49;102603.22;7294608;19;153556;-50
2022/01/29 02:26:22;;;;;;;;;;;;;;;20.89;44.51;102595.34;7286268;19;152521;-50
2022/01/29 02:28:48;;;;;;;;;;;;;;;20.84;44.46;102604.56;7285970;19;153626;-50
2022/01/29 02:31:15;;;;;;;;;;;;;;;20.84;44.50;102604.56;7285344;19;154224;-50
2022/01/29 02:33:44;;;;;;;;;;;;;;;20.81;44.81;102594.72;7288115;19;151867;-50
2022/01/29 02:36:11;;;;;;;;;;;;;;;20.79;44.67;102596.97;7286391;19;153144;-51
2022/01/29 02:38:38;;;;;;;;;;;;;;;20.77;44.57;102595.53;7285097;19;152219;-51
2022/01/29 02:41:06;;;;;;;;;;;;;;;20.76;45.09;102580.63;7284898;19;152187;-50
2022/01/29 02:43:42;;;;;;;;;;;;;;;20.75;45.27;102586.53;7288128;19;153894;-50
2022/01/29 02:48:40;;;;;;;;;;;;;;;20.70;45.06;102578.06;7284944;19;153559;-51
2022/01/29 02:51:08;;;;;;;;;;;;;;;20.69;44.86;102573.56;7284527;19;152332;-50
2022/01/29 02:53:36;;;;;;;;;;;;;;;20.64;45.08;102563.13;7285297;19;152048;-50
2022/01/29 02:56:03;;;;;;;;;;;;;;;20.62;45.08;102565.38;7285885;19;152056;-50
2022/01/29 02:58:30;;;;;;;;;;;;;;;20.59;44.82;102556.63;7286284;19;153480;-50
2022/01/29 03:00:57;;;;;;;;;;;;;;;20.57;45.18;102558.88;7288117;19;152218;-50
2022/01/29 03:03:25;;;;;;;;;;;;;;;20.56;45.21;102555.22;7284502;19;151847;-51
2022/01/29 03:05:52;;;;;;;;;;;;;;;20.54;44.97;102550.97;7285919;19;153985;-54
2022/01/29 03:08:19;;;;;;;;;;;;;;;20.53;45.18;102547.34;7290567;19;152074;-50
2022/01/29 03:10:47;;;;;;;;;;;;;;;20.52;44.79;102551.25;7284921;19;154051;-50
2022/01/29 03:13:14;;;;;;;;;;;;;;;20.50;44.94;102542.25;7282391;19;152232;-50
2022/01/29 03:15:42;;;;;;;;;;;;;;;20.47;45.25;102542.78;7285757;19;153365;-50
2022/01/29 03:18:09;;;;;;;;;;;;;;;20.44;45.30;102532.13;7284627;19;153377;-50
2022/01/29 03:20:36;;;;;;;;;;;;;;;20.44;45.08;102532.13;7287474;19;151752;-50
2022/01/29 03:23:03;;;;;;;;;;;;;;;20.41;45.16;102530.66;7283481;19;154105;-50
2022/01/29 03:25:30;;;;;;;;;;;;;;;20.38;45.56;102538.78;7284657;19;152814;-50
2022/01/29 03:27:57;;;;;;;;;;;;;;;20.34;45.32;102530.06;7292146;19;151989;-50
2022/01/29 03:30:24;;;;;;;;;;;;;;;20.32;45.12;102523.88;7281949;19;152203;-50
2022/01/29 03:32:51;;;;;;;;;;;;;;;20.28;45.54;102533.91;7283880;19;151787;-50
2022/01/29 03:35:19;;;;;;;;;;;;;;;20.30;45.38;102526.13;7286025;19;152629;-50
2022/01/29 03:37:46;;;;;;;;;;;;;;;20.26;45.14;102527.69;7285013;19;154027;-49
2022/01/29 03:40:13;;;;;;;;;;;;;;;20.24;45.13;102540.31;7284679;19;151908;-50
2022/01/29 03:42:47;;;;;;;;;;;;;;;20.22;45.28;102526.53;7286570;19;153645;-49
2022/01/29 03:45:19;;;;;;;;;;;;;;;20.21;45.06;102527.69;7283406;19;152102;-50
2022/01/29 03:47:46;;;;;;;;;;;;;;;20.17;45.33;102532.13;7283603;19;151693;-50
2022/01/29 03:50:13;;;;;;;;;;;;;;;20.15;45.33;102536.31;7287275;19;152764;-50
2022/01/29 03:52:40;;;;;;;;;;;;;;;20.14;45.45;102529.84;7284450;19;152233;-50
2022/01/29 03:55:07;;;;;;;;;;;;;;;20.12;45.44;102522.84;7286772;19;153652;-50
2022/01/29 03:57:34;;;;;;;;;;;;;;;20.10;45.83;102525.88;7283825;19;154003;-50
2022/01/29 04:00:02;;;;;;;;;;;;;;;20.10;45.80;102530.66;7284056;19;151713;-51
2022/01/29 04:02:29;;;;;;;;;;;;;;;20.11;45.60;102523.94;7283205;19;153321;-50
2022/01/29 04:04:57;;;;;;;;;;;;;;;20.06;45.86;102524.75;7283315;19;153273;-50
2022/01/29 04:07:23;;;;;;;;;;;;;;;20.06;45.89;102535.97;7281401;19;152544;-50
2022/01/29 04:09:52;;;;;;;;;;;;;;;20.04;45.61;102532.56;7281215;19;153703;-51
2022/01/29 04:12:19;;;;;;;;;;;;;;;20.00;45.76;102525.78;7288297;19;153649;-50
2022/01/29 04:14:46;;;;;;;;;;;;;;;19.99;45.87;102529.72;7283628;19;152610;-50
2022/01/29 04:17:13;;;;;;;;;;;;;;;19.97;45.88;102523.53;7284457;19;154106;-50
2022/01/29 04:19:40;;;;;;;;;;;;;;;19.95;45.96;102525.75;7282820;19;151675;-50
2022/01/29 04:22:07;;;;;;;;;;;;;;;19.93;45.81;102530.78;7283257;19;151775;-50
2022/01/29 04:24:34;;;;;;;;;;;;;;;19.92;45.54;102531.91;7284097;19;153991;-50
2022/01/29 04:27:04;;;;;;;;;;;;;;;19.88;46.09;102514.75;7282474;19;151855;-50
2022/01/29 04:29:41;;;;;;;;;;;;;;;19.87;45.82;102510.25;7281549;19;153339;-50
2022/01/29 04:32:13;;;;;;;;;;;;;;;19.87;46.04;102510.25;7282848;19;152304;-50
2022/01/29 04:34:40;;;;;;;;;;;;;;;19.85;46.11;102511.66;7291486;19;151808;-50
2022/01/29 04:37:07;;;;;;;;;;;;;;;19.83;46.04;102509.09;7279698;19;153750;-50
2022/01/29 04:39:34;;;;;;;;;;;;;;;19.81;45.95;102510.44;7285091;19;151643;-49
2022/01/29 04:42:02;;;;;;;;;;;;;;;19.79;46.09;102512.69;7282976;19;152682;-48
2022/01/29 04:44:29;;;;;;;;;;;;;;;19.76;45.98;102513.25;7281367;19;152085;-48
2022/01/29 04:46:56;;;;;;;;;;;;;;;19.74;46.17;102518.25;7283597;19;152407;-48
2022/01/29 04:49:23;;;;;;;;;;;;;;;19.74;45.73;102510.69;7283792;19;152928;-48
2022/01/29 04:51:49;;;;;;;;;;;;;;;19.71;45.95;102514.03;7282890;19;153832;-48
2022/01/29 04:54:16;;;;;;;;;;;;;;;19.70;46.13;102522.69;7282086;19;151926;-48
2022/01/29 04:56:43;;;;;;;;;;;;;;;19.70;46.33;102514.28;7286704;19;152805;-48
2022/01/29 04:59:11;;;;;;;;;;;;;;;19.68;46.06;102516.50;7283532;19;151756;-48
2022/01/29 05:01:39;;;;;;;;;;;;;;;19.67;46.00;102509.22;7284021;19;152805;-48
2022/01/29 05:04:06;;;;;;;;;;;;;;;19.65;46.19;102500.22;7281533;19;153981;-48
2022/01/29 05:06:33;;;;;;;;;;;;;;;19.65;46.01;102497.41;7281470;19;152061;-48
2022/01/29 05:09:00;;;;;;;;;;;;;;;19.65;46.31;102494.59;7280492;19;152754;-48
2022/01/29 05:11:28;;;;;;;;;;;;;;;19.62;46.60;102498.78;7279722;19;152081;-49
2022/01/29 05:13:55;;;;;;;;;;;;;;;19.60;46.48;102501.00;7282225;19;151841;-49
2022/01/29 05:16:35;;;;;;;;;;;;;;;19.57;46.33;102490.31;7283085;19;153336;-48
2022/01/29 05:29:03;;;;;;;;;;;;;;;19.49;46.36;102487.97;7288261;19;153989;-49
2022/01/29 05:31:30;;;;;;;;;;;;;;;19.48;46.41;102491.91;7286563;19;153824;-49
2022/01/29 05:33:58;;;;;;;;;;;;;;;19.44;46.66;102493.56;7287825;19;152216;-48
2022/01/29 05:36:25;;;;;;;;;;;;;;;19.42;46.44;102495.72;7288414;19;152643;-48
2022/01/29 05:38:56;;;;;;;;;;;;;;;19.42;46.47;102493.78;7295218;19;152891;-48
2022/01/29 05:41:23;;;;;;;;;;;;;;;19.41;46.41;102491.22;7287976;19;152724;-48
2022/01/29 05:43:50;;;;;;;;;;;;;;;19.37;46.84;102484.44;7287638;19;153945;-49
2022/01/29 05:46:17;;;;;;;;;;;;;;;19.36;46.60;102479.94;7288824;19;151768;-48
2022/01/29 05:48:44;;;;;;;;;;;;;;;19.37;46.87;102478.84;7287548;19;153507;-49
2022/01/29 05:51:12;;;;;;;;;;;;;;;19.36;46.83;102477.16;7283902;19;153372;-49
2022/01/29 05:53:39;;;;;;;;;;;;;;;19.34;46.58;102476.59;7289287;19;151755;-49
2022/01/29 05:56:06;;;;;;;;;;;;;;;19.33;46.52;102486.09;7287054;19;153459;-48
2022/01/29 05:58:33;;;;;;;;;;;;;;;19.30;46.86;102478.22;7286883;19;153898;-49
2022/01/29 06:01:00;;;;;;;;;;;;;;;19.28;46.61;102478.47;7296571;19;151770;-48
2022/01/29 06:03:27;;;;;;;;;;;;;;;19.28;46.61;102478.47;7287381;19;154021;-49
2022/01/29 06:05:54;;;;;;;;;;;;;;;19.30;46.40;102481.03;7288909;19;151851;-48
2022/01/29 06:08:21;;;;;;;;;;;;;;;19.29;46.65;102477.38;7287399;19;153723;-48
2022/01/29 06:10:48;;;;;;;;;;;;;;;19.28;46.73;102478.47;7284664;19;152578;-48
2022/01/29 06:13:16;;;;;;;;;;;;;;;19.26;46.54;102465.84;7285837;19;152335;-49
2022/01/29 06:15:44;;;;;;;;;;;;;;;19.24;46.87;102471.69;7288897;19;153170;-48
2022/01/29 06:18:13;;;;;;;;;;;;;;;19.21;46.98;102472.25;7284960;19;152360;-48
2022/01/29 06:20:40;;;;;;;;;;;;;;;19.24;46.77;102474.50;7288896;19;151487;-48
2022/01/29 06:23:09;;;;;;;;;;;;;;;19.24;46.80;102468.91;7292461;19;153079;-48
2022/01/29 06:25:36;;;;;;;;;;;;;;;19.22;46.84;102464.66;7286438;19;153177;-49
2022/01/29 06:28:03;;;;;;;;;;;;;;;19.17;47.00;102471.03;7285873;19;152666;-49
2022/01/29 06:30:30;;;;;;;;;;;;;;;19.18;46.83;102466.28;7281808;19;152032;-49
2022/01/29 06:33:05;;;;;;;;;;;;;;;19.19;46.81;102473.59;7287297;19;151854;-49
2022/01/29 06:35:32;;;;;;;;;;;;;;;19.15;46.79;102467.66;7286379;19;153818;-48
2022/01/29 06:37:59;;;;;;;;;;;;;;;19.15;47.22;102466.81;7284263;19;152802;-48
2022/01/29 06:40:26;;;;;;;;;;;;;;;19.13;47.02;102469.03;7288524;19;152126;-48
2022/01/29 06:42:52;;;;;;;;;;;;;;;19.11;47.48;102469.31;7286114;19;152577;-48
2022/01/29 06:45:19;;;;;;;;;;;;;;;19.12;47.07;102472.97;7293099;19;152184;-48
2022/01/29 06:47:46;;;;;;;;;;;;;;;19.09;47.24;102468.72;7286925;19;152387;-48
2022/01/29 06:50:13;;;;;;;;;;;;;;;19.09;47.23;102468.72;7284961;19;153292;-48
2022/01/29 06:52:40;;;;;;;;;;;;;;;19.07;47.48;102462.53;7285185;19;152062;-48
2022/01/29 06:55:07;;;;;;;;;;;;;;;19.06;47.43;102467.28;7287954;19;153745;-48
2022/01/29 06:57:34;;;;;;;;;;;;;;;19.07;47.28;102470.94;7285405;19;153827;-49
2022/01/29 07:00:21;;;;;;;;;;;;;;;19.07;47.25;102473.75;7286783;19;152518;-49
2022/01/29 07:02:48;;;;;;;;;;;;;;;19.06;47.25;102470.09;7285668;19;153432;-49
2022/01/29 07:05:15;;;;;;;;;;;;;;;19.09;47.76;102460.31;7283503;19;154621;-49
2022/01/29 07:07:42;;;;;;;;;;;;;;;19.13;48.15;102463.41;7292328;19;151722;-48
2022/01/29 07:10:09;;;;;;;;;;;;;;;19.15;47.80;102464.03;7285034;19;154345;-49
2022/01/29 07:12:37;;;;;;;;;;;;;;;19.17;47.95;102470.22;7284018;19;151934;-50
2022/01/29 07:15:06;;;;;;;;;;;;;;;19.20;48.15;102464.09;7287576;19;152751;-49
2022/01/29 07:17:32;;;;;;;;;;;;;;;19.24;48.06;102465.25;7283492;19;153967;-49
2022/01/29 07:19:59;;;;;;;;;;;;;;;19.29;48.40;102468.13;7283708;19;151529;-50
2022/01/29 07:22:26;;;;;;;;;;;;;;;19.35;48.60;102469.88;7284066;19;152611;-50
2022/01/29 07:24:53;;;;;;;;;;;;;;;19.40;48.88;102465.16;7283949;19;153934;-50
2022/01/29 07:27:20;;;;;;;;;;;;;;;19.46;48.58;102469.75;7292194;19;152327;-50
2022/01/29 07:29:47;;;;;;;;;;;;;;;19.53;48.91;102478.78;7283402;19;153482;-50
2022/01/29 07:32:14;;;;;;;;;;;;;;;19.59;48.87;102476.88;7285152;19;151771;-50
2022/01/29 07:34:41;;;;;;;;;;;;;;;19.66;48.40;102474.72;7287211;19;153145;-50
2022/01/29 07:37:08;;;;;;;;;;;;;;;19.73;48.76;102472.53;7283058;19;152714;-50
2022/01/29 07:39:35;;;;;;;;;;;;;;;19.80;48.37;102478.78;7282432;19;151852;-50
2022/01/29 07:42:03;;;;;;;;;;;;;;;19.88;48.15;102486.72;7282808;19;153058;-50
2022/01/29 07:44:29;;;;;;;;;;;;;;;19.94;48.10;102471.59;7284630;19;153580;-50
2022/01/29 07:46:57;;;;;;;;;;;;;;;20.02;48.01;102477.84;7286302;19;152096;-50
2022/01/29 07:49:24;;;;;;;;;;;;;;;20.08;47.37;102469.19;7290335;19;153772;-50
2022/01/29 07:51:51;;;;;;;;;;;;;;;20.16;47.24;102460.28;7280423;19;152140;-50
2022/01/29 07:54:18;;;;;;;;;;;;;;;20.24;47.24;102456.13;7284131;19;153333;-51
2022/01/29 07:56:45;;;;;;;;;;;;;;;20.30;47.15;102458.75;7283264;19;153320;-50
2022/01/29 07:59:12;;;;;;;;;;;;;;;20.37;46.97;102470.56;7284935;19;151799;-50
2022/01/29 08:01:39;;;;;;;;;;;;;;;20.42;46.80;102469.75;7284013;19;153453;-51
2022/01/29 08:04:06;;;;;;;;;;;;;;;20.48;47.11;102468.69;7284387;19;154512;-50
2022/01/29 08:06:33;;;;;;;;;;;;;;;20.53;46.49;102467.88;7283778;19;152076;-50
2022/01/29 08:09:00;;;;;;;;;;;;;;;20.60;46.65;102463.69;7283472;19;153647;-50
2022/01/29 08:11:27;;;;;;;;;;;;;;;20.66;46.65;102471.03;7289340;19;154139;-50
2022/01/29 08:13:54;;;;;;;;;;;;;;;20.72;46.35;102480.31;7285168;19;153495;-50
2022/01/29 08:16:21;;;;;;;;;;;;;;;20.77;46.17;102471.91;7283351;19;154355;-50
2022/01/29 08:18:48;;;;;;;;;;;;;;;20.81;46.24;102476.72;7283834;19;152570;-50
2022/01/29 08:21:16;;;;;;;;;;;;;;;20.85;46.17;102485.44;7283003;19;151947;-53
2022/01/29 08:23:43;;;;;;;;;;;;;;;20.88;45.67;102484.91;7283780;19;153301;-50
2022/01/29 08:26:10;;;;;;;;;;;;;;;20.92;45.81;102476.78;7285607;19;151714;-50
2022/01/29 08:28:37;;;;;;;;;;;;;;;20.94;46.03;102474.56;7281637;19;152557;-50
2022/01/29 08:31:05;;;;;;;;;;;;;;;20.96;45.87;102473.16;7282435;19;152362;-50
2022/01/29 08:33:32;;;;;;;;;;;;;;;20.99;45.16;102472.59;7290342;19;151969;-50
2022/01/29 08:35:59;;;;;;;;;;;;;;;21.01;45.59;102478.78;7281724;19;153303;-50
2022/01/29 08:38:26;;;;;;;;;;;;;;;21.02;45.26;102474.88;7280862;19;152126;-50
2022/01/29 08:40:54;;;;;;;;;;;;;;;21.05;45.07;102479.06;7285228;19;152690;-50
2022/01/29 08:43:22;;;;;;;;;;;;;;;21.06;44.92;102480.78;7281128;19;153325;-50
2022/01/29 08:45:50;;;;;;;;;;;;;;;21.07;44.67;102488.09;7282532;19;152280;-50
2022/01/29 08:48:17;;;;;;;;;;;;;;;21.08;44.91;102482.19;7282443;19;152819;-51
2022/01/29 08:50:44;;;;;;;;;;;;;;;21.09;45.04;102497.06;7282771;19;153258;-50
2022/01/29 08:53:15;;;;;;;;;;;;;;;21.09;44.64;102481.06;7281686;19;152163;-50
2022/01/29 08:55:42;;;;;;;;;;;;;;;21.11;44.79;102475.19;7294236;19;152036;-50
2022/01/29 08:58:09;;;;;;;;;;;;;;;21.10;44.71;102473.47;7287923;19;152386;-50
2022/01/29 09:00:37;;;;;;;;;;;;;;;21.11;44.71;102470.41;7291434;19;152947;-50
2022/01/29 09:03:04;;;;;;;;;;;;;;;21.09;44.43;102464.19;7289372;19;154095;-50
2022/01/29 09:05:32;;;;;;;;;;;;;;;21.09;44.56;102474.59;7288714;19;151669;-50
2022/01/29 09:07:59;;;;;;;;;;;;;;;21.08;44.17;102465.31;7290909;19;153058;-50
2022/01/29 09:10:27;;;;;;;;;;;;;;;21.06;44.50;102464.75;7288989;19;153526;-50
2022/01/29 09:12:54;;;;;;;;;;;;;;;21.06;44.30;102456.34;7285466;19;151815;-50
2022/01/29 09:15:21;;;;;;;;;;;;;;;21.06;44.83;102455.47;7290123;19;153179;-50
2022/01/29 09:17:48;;;;;;;;;;;;;;;21.07;44.45;102460.84;7293963;19;153136;-51
2022/01/29 09:20:15;;;;;;;;;;;;;;;21.03;44.12;102447.63;7290544;19;153811;-51
2022/01/29 09:22:42;;;;;;;;;;;;;;;21.01;43.85;102441.41;7286587;19;154342;-51
2022/01/29 09:25:09;;;;;;;;;;;;;;;20.95;43.96;102448.97;7290824;19;151833;-51
2022/01/29 09:27:36;;;;;;;;;;;;;;;20.98;43.92;102459.69;7287403;19;153390;-52
2022/01/29 09:30:04;;;;;;;;;;;;;;;20.25;42.58;102452.22;7286900;19;153279;-51
2022/01/29 09:32:31;;;;;;;;;;;;;;;20.43;42.85;102465.84;7287216;19;151884;-51
2022/01/29 09:34:58;;;;;;;;;;;;;;;20.52;42.80;102461.41;7287399;19;154020;-51
2022/01/29 09:37:25;;;;;;;;;;;;;;;20.57;42.81;102461.44;7295805;19;153841;-51
2022/01/29 09:39:55;;;;;;;;;;;;;;;20.57;42.54;102450.22;7287774;19;152809;-51
2022/01/29 09:42:22;;;;;;;;;;;;;;;20.57;42.60;102440.94;7285625;19;153492;-51
2022/01/29 09:44:51;;;;;;;;;;;;;;;20.58;42.87;102440.63;7289548;19;152110;-51
2022/01/29 09:47:23;;;;;;;;;;;;;;;20.59;42.82;102439.53;7286004;19;152643;-51
2022/01/29 09:49:50;;;;;;;;;;;;;;;20.64;42.71;102447.13;7286797;19;154235;-51
2022/01/29 09:52:17;;;;;;;;;;;;;;;20.66;42.63;102458.97;7285335;19;151733;-51
2022/01/29 09:54:46;;;;;;;;;;;;;;;20.68;42.51;102432.28;7289715;19;153840;-51
2022/01/29 09:57:13;;;;;;;;;;;;;;;20.71;42.83;102450.56;7286040;19;153278;-51
2022/01/29 09:59:40;;;;;;;;;;;;;;;20.74;42.41;102442.44;7296509;19;151657;-51
2022/01/29 10:02:10;;;;;;;;;;;;;;;20.79;42.67;102444.41;7287878;19;153229;-51
2022/01/29 10:04:40;;;;;;;;;;;;;;;20.83;42.68;102443.59;7286087;19;151814;-51
2022/01/29 10:07:10;;;;;;;;;;;;;;;20.87;42.23;102443.88;7284541;19;151901;-51
2022/01/29 10:09:37;;;;;;;;;;;;;;;20.90;42.27;102445.28;7285201;19;153265;-51
2022/01/29 10:12:07;;;;;;;;;;;;;;;20.94;42.34;102452.88;7286468;19;151848;-51
2022/01/29 10:14:55;;;;;;;;;;;;;;;20.99;41.99;102447.28;7288534;19;155006;-51
2022/01/29 10:17:26;;;;;;;;;;;;;;;21.04;41.92;102440.84;7284282;19;153514;-51
2022/01/29 10:20:05;;;;;;;;;;;;;;;21.07;41.90;102446.78;7287087;19;151998;-51
2022/01/29 10:22:34;;;;;;;;;;;;;;;21.13;41.78;102448.50;7292773;19;153604;-51
2022/01/29 10:25:04;;;;;;;;;;;;;;;21.17;41.98;102455.25;7287894;19;151960;-51
2022/01/29 10:27:31;;;;;;;;;;;;;;;21.22;41.65;102474.09;7286820;19;153266;-51
2022/01/29 10:30:10;;;;;;;;;;;;;;;21.24;41.44;102466.25;7285609;19;154067;-51
2022/01/29 10:32:36;;;;;;;;;;;;;;;21.28;41.77;102478.63;7284292;19;151919;-51
2022/01/29 10:35:04;;;;;;;;;;;;;;;21.33;41.70;102481.47;7288557;19;152716;-51
2022/01/29 10:37:31;;;;;;;;;;;;;;;21.38;41.27;102477.81;7286275;19;153346;-51
2022/01/29 10:40:01;;;;;;;;;;;;;;;21.43;41.46;102469.41;7288300;19;151619;-51
2022/01/29 10:42:32;;;;;;;;;;;;;;;21.46;41.61;102474.47;7286281;19;153309;-51
2022/01/29 10:45:02;;;;;;;;;;;;;;;21.49;41.09;102471.09;7290451;19;153858;-51
2022/01/29 10:47:29;;;;;;;;;;;;;;;21.52;41.19;102479.84;7285381;19;153972;-51
2022/01/29 10:49:59;;;;;;;;;;;;;;;21.54;41.33;102474.75;7285392;19;153315;-51
2022/01/29 10:52:28;;;;;;;;;;;;;;;21.57;40.86;102464.94;7283207;19;152515;-51
2022/01/29 10:54:59;;;;;;;;;;;;;;;21.57;40.84;102453.69;7287259;19;153604;-51
2022/01/29 10:57:29;;;;;;;;;;;;;;;21.58;41.08;102453.38;7273001;19;153399;-51
2022/01/29 10:59:56;;;;;;;;;;;;;;;21.62;40.66;102453.69;7283451;19;152172;-55
2022/01/29 11:02:26;;;;;;;;;;;;;;;21.64;41.04;102460.72;7285299;19;153481;-51
2022/01/29 11:04:53;;;;;;;;;;;;;;;21.64;40.53;102468.31;7283489;19;153794;-51
2022/01/29 11:07:26;;;;;;;;;;;;;;;21.63;40.69;102452.56;7292752;19;152153;-51
2022/01/29 11:09:53;;;;;;;;;;;;;;;21.65;40.61;102439.06;7284949;19;153931;-51
2022/01/29 11:12:21;;;;;;;;;;;;;;;21.66;40.84;102426.69;7283173;19;151868;-51
2022/01/29 11:14:49;;;;;;;;;;;;;;;21.67;40.80;102411.47;7286680;19;153900;-51
2022/01/29 11:17:18;;;;;;;;;;;;;;;21.68;40.58;102418.81;7281030;19;154129;-51
2022/01/29 11:19:46;;;;;;;;;;;;;;;21.69;40.61;102417.69;7282583;19;152055;-51
2022/01/29 11:22:13;;;;;;;;;;;;;;;21.68;40.45;102407.56;7282874;19;153362;-51
2022/01/29 11:24:41;;;;;;;;;;;;;;;21.66;40.51;102410.66;7284294;19;154741;-51
2022/01/29 11:27:11;;;;;;;;;;;;;;;21.66;40.39;102405.03;7282945;19;151920;-50
2022/01/29 11:29:38;;;;;;;;;;;;;;;21.67;40.88;102408.66;7292428;19;153083;-53
2022/01/29 11:32:08;;;;;;;;;;;;;;;21.68;40.82;102397.16;7283977;19;152799;-51
2022/01/29 11:34:54;;;;;;;;;;;;;;;21.67;40.55;102406.69;7285230;19;152729;-51
2022/01/29 11:37:36;;;;;;;;;;;;;;;21.62;40.69;102397.44;7281527;19;153395;-51
2022/01/29 11:40:05;;;;;;;;;;;;;;;21.60;40.74;102382.81;7283698;19;151862;-51
2022/01/29 11:42:33;;;;;;;;;;;;;;;21.58;40.52;102385.03;7285370;19;152032;-51
2022/01/29 11:45:19;;;;;;;;;;;;;;;21.56;40.54;102393.78;7278212;19;153827;-51
2022/01/29 11:47:47;;;;;;;;;;;;;;;21.53;40.89;102402.75;7283243;19;151632;-51
2022/01/29 11:50:17;;;;;;;;;;;;;;;21.59;41.55;102395.16;7283072;19;151759;-51
2022/01/29 11:52:53;;;;;;;;;;;;;;;21.58;42.42;102399.94;7283398;19;151519;-51
2022/01/29 11:55:28;;;;;;;;;;;;;;;21.59;42.59;102396.03;7284566;19;153581;-51
2022/01/29 11:57:58;;;;;;;;;;;;;;;21.57;42.38;102372.13;7281249;19;153275;-51
2022/01/29 12:00:28;;;;;;;;;;;;;;;21.52;42.67;102341.19;7281774;19;151723;-51
2022/01/29 12:02:55;;;;;;;;;;;;;;;21.49;42.19;102356.63;7285278;19;153761;-51
2022/01/29 12:05:52;;;;;;;;;;;;;;;21.45;42.09;102352.69;7283861;19;153996;-51
2022/01/29 12:08:20;;;;;;;;;;;;;;;21.44;42.64;102361.44;7282806;19;151652;-51
2022/01/29 12:13:17;;;;;;;;;;;;;;;21.39;42.04;102369.88;7288960;19;153465;-51
2022/01/29 12:15:44;;;;;;;;;;;;;;;21.35;42.32;102369.56;7283769;19;153361;-51
2022/01/29 12:18:14;;;;;;;;;;;;;;;21.32;42.21;102356.06;7283258;19;153324;-51
2022/01/29 12:20:41;;;;;;;;;;;;;;;21.26;42.34;102348.75;7282916;19;151802;-51
2022/01/29 12:23:08;;;;;;;;;;;;;;;21.27;42.12;102353.25;7284944;19;153075;-51
2022/01/29 12:25:35;;;;;;;;;;;;;;;21.24;42.04;102336.94;7284392;19;154014;-51
2022/01/29 12:28:04;;;;;;;;;;;;;;;21.24;42.21;102314.47;7285036;19;151716;-51
2022/01/29 12:30:33;;;;;;;;;;;;;;;21.20;42.20;102318.97;7296098;19;153495;-51
2022/01/29 12:33:03;;;;;;;;;;;;;;;21.18;41.95;102327.66;7292691;19;154000;-51
2022/01/29 12:35:31;;;;;;;;;;;;;;;21.17;42.06;102322.31;7304822;19;152048;-51
2022/01/29 12:37:58;;;;;;;;;;;;;;;21.14;42.27;102323.72;7297209;19;154140;-51
2022/01/29 12:40:26;;;;;;;;;;;;;;;21.11;41.88;102306.56;7298731;19;152565;-51
2022/01/29 12:45:24;;;;;;;;;;;;;;;21.05;42.12;102277.59;7296023;19;154260;-51
2022/01/29 12:47:58;;;;;;;;;;;;;;;21.05;41.85;102287.97;7296342;19;151632;-51
2022/01/29 12:50:25;;;;;;;;;;;;;;;21.06;41.95;102293.34;7298109;19;153799;-51
2022/01/29 12:52:55;;;;;;;;;;;;;;;21.04;41.89;102272.25;7293105;19;153966;-51